sensor_id;sensor_type;location;lat;lon;timestamp;pressure;altitude;pressure_sealevel;temperature;humidity
26487;BME280;14425;56.136;40.360;2023-01-04T00:00:00;57093.69;;;-145.77;100.00
26487;BME280;14425;56.136;40.360;2023-01-04T00:02:25;57093.69;;;-145.77;100.00
26487;BME280;14425;56.136;40.360;2023-01-04T00:04:52;57093.69;;;-145.77;100.00
26487;BME280;14425;56.136;40.360;2023-01-04T00:07:17;57093.69;;;-145.77;100.00
26487;BME280;14425;56.136;40.360;2023-01-04T00:09:42;57093.69;;;-145.77;100.00
26487;BME280;14425;56.136;40.360;2023-01-04T00:12:07;57093.69;;;-145.77;100.00
26487;BME280;14425;56.136;40.360;2023-01-04T00:14:33;57093.69;;;-145.77;100.00
26487;BME280;14425;56.136;40.360;2023-01-04T00:16:58;57093.69;;;-145.77;100.00
26487;BME280;14425;56.136;40.360;2023-01-04T00:19:23;57093.69;;;-145.77;100.00
26487;BME280;14425;56.136;40.360;2023-01-04T00:21:49;57093.69;;;-145.77;100.00
26487;BME280;14425;56.136;40.360;2023-01-04T00:24:14;57093.69;;;-145.77;100.00
26487;BME280;14425;56.136;40.360;2023-01-04T00:26:39;57093.69;;;-145.77;100.00
26487;BME280;14425;56.136;40.360;2023-01-04T00:29:05;57093.69;;;-145.77;100.00
26487;BME280;14425;56.136;40.360;2023-01-04T00:31:31;57093.69;;;-145.77;100.00
26487;BME280;14425;56.136;40.360;2023-01-04T00:33:57;57093.69;;;-145.77;100.00
26487;BME280;14425;56.136;40.360;2023-01-04T00:36:23;57093.69;;;-145.77;100.00
26487;BME280;14425;56.136;40.360;2023-01-04T00:38:49;57093.69;;;-145.77;100.00
26487;BME280;14425;56.136;40.360;2023-01-04T00:44:03;57093.69;;;-145.77;100.00
26487;BME280;14425;56.136;40.360;2023-01-04T00:46:29;57093.69;;;-145.77;100.00
26487;BME280;14425;56.136;40.360;2023-01-04T00:48:54;57093.69;;;-145.77;100.00
26487;BME280;14425;56.136;40.360;2023-01-04T00:51:20;57093.69;;;-145.77;100.00
26487;BME280;14425;56.136;40.360;2023-01-04T00:53:45;57093.69;;;-145.77;100.00
26487;BME280;14425;56.136;40.360;2023-01-04T00:56:10;57093.69;;;-145.77;100.00
26487;BME280;14425;56.136;40.360;2023-01-04T00:58:35;57093.69;;;-145.77;100.00
26487;BME280;14425;56.136;40.360;2023-01-04T01:01:04;57093.69;;;-145.77;100.00
26487;BME280;14425;56.136;40.360;2023-01-04T01:03:30;57093.69;;;-145.77;100.00
26487;BME280;14425;56.136;40.360;2023-01-04T01:05:59;57093.69;;;-145.77;100.00
26487;BME280;14425;56.136;40.360;2023-01-04T01:08:25;57093.69;;;-145.77;100.00
26487;BME280;14425;56.136;40.360;2023-01-04T01:10:51;57093.69;;;-145.77;100.00
26487;BME280;14425;56.136;40.360;2023-01-04T01:13:17;57093.69;;;-145.77;100.00
26487;BME280;14425;56.136;40.360;2023-01-04T01:15:42;57093.69;;;-145.77;100.00
26487;BME280;14425;56.136;40.360;2023-01-04T01:18:07;57093.69;;;-145.77;100.00
26487;BME280;14425;56.136;40.360;2023-01-04T01:20:33;57093.69;;;-145.77;100.00
26487;BME280;14425;56.136;40.360;2023-01-04T01:22:58;57093.69;;;-145.77;100.00
26487;BME280;14425;56.136;40.360;2023-01-04T01:25:23;57093.69;;;-145.77;100.00
26487;BME280;14425;56.136;40.360;2023-01-04T01:27:49;57093.69;;;-145.77;100.00
26487;BME280;14425;56.136;40.360;2023-01-04T01:30:14;57093.69;;;-145.77;100.00
26487;BME280;14425;56.136;40.360;2023-01-04T01:32:39;98212.16;;;-2.15;100.00
26487;BME280;14425;56.136;40.360;2023-01-04T01:35:05;98225.03;;;-2.52;100.00
26487;BME280;14425;56.136;40.360;2023-01-04T01:37:30;98227.34;;;-2.55;100.00
26487;BME280;14425;56.136;40.360;2023-01-04T01:39:55;98225.59;;;-2.56;100.00
26487;BME280;14425;56.136;40.360;2023-01-04T01:42:21;98242.66;;;-2.79;100.00
26487;BME280;14425;56.136;40.360;2023-01-04T01:44:56;98231.22;;;-2.47;100.00
26487;BME280;14425;56.136;40.360;2023-01-04T01:47:41;98238.59;;;-2.63;100.00
26487;BME280;14425;56.136;40.360;2023-01-04T01:50:16;98247.53;;;-2.42;100.00
26487;BME280;14425;56.136;40.360;2023-01-04T01:52:43;98255.59;;;-2.61;100.00
26487;BME280;14425;56.136;40.360;2023-01-04T01:55:08;98252.66;;;-2.80;100.00
26487;BME280;14425;56.136;40.360;2023-01-04T01:57:35;98260.28;;;-3.05;100.00
26487;BME280;14425;56.136;40.360;2023-01-04T02:00:06;98264.00;;;-2.87;100.00
26487;BME280;14425;56.136;40.360;2023-01-04T02:02:32;98264.44;;;-2.67;100.00
26487;BME280;14425;56.136;40.360;2023-01-04T02:04:58;98275.72;;;-2.49;100.00
26487;BME280;14425;56.136;40.360;2023-01-04T02:07:25;98276.00;;;-2.31;100.00
26487;BME280;14425;56.136;40.360;2023-01-04T02:09:52;98288.09;;;-2.65;100.00
26487;BME280;14425;56.136;40.360;2023-01-04T02:12:18;98289.81;;;-2.78;100.00
26487;BME280;14425;56.136;40.360;2023-01-04T02:14:44;98297.16;;;-2.55;100.00
26487;BME280;14425;56.136;40.360;2023-01-04T02:17:13;98303.59;;;-2.47;100.00
26487;BME280;14425;56.136;40.360;2023-01-04T02:32:21;98342.34;;;-2.72;100.00
26487;BME280;14425;56.136;40.360;2023-01-04T02:35:23;98349.44;;;-2.66;100.00
26487;BME280;14425;56.136;40.360;2023-01-04T02:42:56;98365.66;;;-1.44;100.00
26487;BME280;14425;56.136;40.360;2023-01-04T02:45:47;98374.69;;;-2.01;100.00
26487;BME280;14425;56.136;40.360;2023-01-04T02:48:14;98384.94;;;-2.51;100.00
26487;BME280;14425;56.136;40.360;2023-01-04T02:50:59;98389.28;;;-2.10;100.00
26487;BME280;14425;56.136;40.360;2023-01-04T02:53:28;98395.69;;;-2.15;100.00
26487;BME280;14425;56.136;40.360;2023-01-04T03:01:13;98416.00;;;-2.52;100.00
26487;BME280;14425;56.136;40.360;2023-01-04T03:07:09;98442.28;;;-2.74;100.00
26487;BME280;14425;56.136;40.360;2023-01-04T03:09:35;98449.00;;;-2.49;100.00
26487;BME280;14425;56.136;40.360;2023-01-04T03:12:06;98455.19;;;-1.94;100.00
26487;BME280;14425;56.136;40.360;2023-01-04T03:14:56;98458.72;;;-1.78;100.00
26487;BME280;14425;56.136;40.360;2023-01-04T03:17:24;98463.91;;;-2.15;100.00
26487;BME280;14425;56.136;40.360;2023-01-04T03:19:50;98468.22;;;-2.26;100.00
26487;BME280;14425;56.136;40.360;2023-01-04T03:22:41;98465.41;;;-2.31;100.00
26487;BME280;14425;56.136;40.360;2023-01-04T03:25:44;98477.47;;;-2.27;100.00
26487;BME280;14425;56.136;40.360;2023-01-04T03:28:27;98483.44;;;-2.38;100.00
26487;BME280;14425;56.136;40.360;2023-01-04T03:34:00;98498.31;;;-2.54;100.00
26487;BME280;14425;56.136;40.360;2023-01-04T03:36:54;98505.66;;;-2.57;100.00
26487;BME280;14425;56.136;40.360;2023-01-04T03:39:26;98508.44;;;-2.66;100.00
26487;BME280;14425;56.136;40.360;2023-01-04T03:45:12;98530.34;;;-2.90;100.00
26487;BME280;14425;56.136;40.360;2023-01-04T03:50:41;98537.78;;;-2.80;100.00
26487;BME280;14425;56.136;40.360;2023-01-04T03:53:08;98541.34;;;-2.28;100.00
26487;BME280;14425;56.136;40.360;2023-01-04T03:55:36;98551.63;;;-2.38;100.00
26487;BME280;14425;56.136;40.360;2023-01-04T03:58:03;98554.31;;;-2.60;100.00
26487;BME280;14425;56.136;40.360;2023-01-04T04:00:28;98562.25;;;-2.79;100.00
26487;BME280;14425;56.136;40.360;2023-01-04T04:02:54;98560.81;;;-2.64;100.00
26487;BME280;14425;56.136;40.360;2023-01-04T04:05:31;98567.44;;;-2.40;100.00
26487;BME280;14425;56.136;40.360;2023-01-04T04:08:16;98571.59;;;-2.41;100.00
26487;BME280;14425;56.136;40.360;2023-01-04T04:10:55;98569.81;;;-2.30;100.00
26487;BME280;14425;56.136;40.360;2023-01-04T04:13:20;98577.34;;;-2.55;100.00
26487;BME280;14425;56.136;40.360;2023-01-04T04:15:46;98586.22;;;-2.12;100.00
26487;BME280;14425;56.136;40.360;2023-01-04T04:18:12;57093.69;;;-145.77;100.00
26487;BME280;14425;56.136;40.360;2023-01-04T04:20:37;57093.69;;;-145.77;100.00
26487;BME280;14425;56.136;40.360;2023-01-04T04:23:02;57093.69;;;-145.77;100.00
26487;BME280;14425;56.136;40.360;2023-01-04T04:25:27;57093.69;;;-145.77;100.00
26487;BME280;14425;56.136;40.360;2023-01-04T04:27:53;57093.69;;;-145.77;100.00
26487;BME280;14425;56.136;40.360;2023-01-04T04:30:18;57093.69;;;-145.77;100.00
26487;BME280;14425;56.136;40.360;2023-01-04T04:32:43;57093.69;;;-145.77;100.00
26487;BME280;14425;56.136;40.360;2023-01-04T04:35:09;57093.69;;;-145.77;100.00
26487;BME280;14425;56.136;40.360;2023-01-04T04:37:34;57093.69;;;-145.77;100.00
26487;BME280;14425;56.136;40.360;2023-01-04T04:40:01;57093.69;;;-145.77;100.00
26487;BME280;14425;56.136;40.360;2023-01-04T04:42:26;57093.69;;;-145.77;100.00
26487;BME280;14425;56.136;40.360;2023-01-04T04:44:51;57093.69;;;-145.77;100.00
26487;BME280;14425;56.136;40.360;2023-01-04T04:47:17;57093.69;;;-145.77;100.00
26487;BME280;14425;56.136;40.360;2023-01-04T04:49:42;57093.69;;;-145.77;100.00
26487;BME280;14425;56.136;40.360;2023-01-04T04:52:07;57093.69;;;-145.77;100.00
26487;BME280;14425;56.136;40.360;2023-01-04T04:54:33;57093.69;;;-145.77;100.00
26487;BME280;14425;56.136;40.360;2023-01-04T04:56:58;57093.69;;;-145.77;100.00
26487;BME280;14425;56.136;40.360;2023-01-04T04:59:23;57093.69;;;-145.77;100.00
26487;BME280;14425;56.136;40.360;2023-01-04T05:01:49;57093.69;;;-145.77;100.00
26487;BME280;14425;56.136;40.360;2023-01-04T05:04:14;57093.69;;;-145.77;100.00
26487;BME280;14425;56.136;40.360;2023-01-04T05:06:47;57093.69;;;-145.77;100.00
26487;BME280;14425;56.136;40.360;2023-01-04T05:09:12;57093.69;;;-145.77;100.00
26487;BME280;14425;56.136;40.360;2023-01-04T05:11:38;57093.69;;;-145.77;100.00
26487;BME280;14425;56.136;40.360;2023-01-04T05:14:22;57093.69;;;-145.77;100.00
26487;BME280;14425;56.136;40.360;2023-01-04T05:16:47;57093.69;;;-145.77;100.00
26487;BME280;14425;56.136;40.360;2023-01-04T05:19:13;57093.69;;;-145.77;100.00
26487;BME280;14425;56.136;40.360;2023-01-04T05:21:38;57093.69;;;-145.77;100.00
26487;BME280;14425;56.136;40.360;2023-01-04T05:24:05;57093.69;;;-145.77;100.00
26487;BME280;14425;56.136;40.360;2023-01-04T05:26:30;57093.69;;;-145.77;100.00
26487;BME280;14425;56.136;40.360;2023-01-04T05:28:55;57093.69;;;-145.77;100.00
26487;BME280;14425;56.136;40.360;2023-01-04T05:31:21;57093.69;;;-145.77;100.00
26487;BME280;14425;56.136;40.360;2023-01-04T05:33:46;57093.69;;;-145.77;100.00
26487;BME280;14425;56.136;40.360;2023-01-04T05:36:11;57093.69;;;-145.77;100.00
26487;BME280;14425;56.136;40.360;2023-01-04T05:38:37;57093.69;;;-145.77;100.00
26487;BME280;14425;56.136;40.360;2023-01-04T05:41:02;57093.69;;;-145.77;100.00
26487;BME280;14425;56.136;40.360;2023-01-04T05:43:27;57093.69;;;-145.77;100.00
26487;BME280;14425;56.136;40.360;2023-01-04T05:45:53;57093.69;;;-145.77;100.00
26487;BME280;14425;56.136;40.360;2023-01-04T05:48:20;57093.69;;;-145.77;100.00
26487;BME280;14425;56.136;40.360;2023-01-04T05:50:45;57093.69;;;-145.77;100.00
26487;BME280;14425;56.136;40.360;2023-01-04T05:53:14;57093.69;;;-145.77;100.00
26487;BME280;14425;56.136;40.360;2023-01-04T05:55:41;57093.69;;;-145.77;100.00
26487;BME280;14425;56.136;40.360;2023-01-04T05:58:06;57093.69;;;-145.77;100.00
26487;BME280;14425;56.136;40.360;2023-01-04T06:00:32;57093.69;;;-145.77;100.00
26487;BME280;14425;56.136;40.360;2023-01-04T06:02:57;57093.69;;;-145.77;100.00
26487;BME280;14425;56.136;40.360;2023-01-04T06:05:23;57093.69;;;-145.77;100.00
26487;BME280;14425;56.136;40.360;2023-01-04T06:07:49;57093.69;;;-145.77;100.00
26487;BME280;14425;56.136;40.360;2023-01-04T06:10:14;57093.69;;;-145.77;100.00
26487;BME280;14425;56.136;40.360;2023-01-04T06:12:40;57093.69;;;-145.77;100.00
26487;BME280;14425;56.136;40.360;2023-01-04T06:15:06;57093.69;;;-145.77;100.00
26487;BME280;14425;56.136;40.360;2023-01-04T06:17:32;57093.69;;;-145.77;100.00
26487;BME280;14425;56.136;40.360;2023-01-04T06:19:58;57093.69;;;-145.77;100.00
26487;BME280;14425;56.136;40.360;2023-01-04T06:22:23;57093.69;;;-145.77;100.00
26487;BME280;14425;56.136;40.360;2023-01-04T06:24:51;57093.69;;;-145.77;100.00
26487;BME280;14425;56.136;40.360;2023-01-04T06:27:16;57093.69;;;-145.77;100.00
26487;BME280;14425;56.136;40.360;2023-01-04T06:29:41;57093.69;;;-145.77;100.00
26487;BME280;14425;56.136;40.360;2023-01-04T06:32:07;57093.69;;;-145.77;100.00
26487;BME280;14425;56.136;40.360;2023-01-04T06:34:32;57093.69;;;-145.77;100.00
26487;BME280;14425;56.136;40.360;2023-01-04T06:36:57;57093.69;;;-145.77;100.00
26487;BME280;14425;56.136;40.360;2023-01-04T06:39:23;57093.69;;;-145.77;100.00
26487;BME280;14425;56.136;40.360;2023-01-04T06:41:48;57093.69;;;-145.77;100.00
26487;BME280;14425;56.136;40.360;2023-01-04T06:44:13;57093.69;;;-145.77;100.00
26487;BME280;14425;56.136;40.360;2023-01-04T06:46:39;57093.69;;;-145.77;100.00
26487;BME280;14425;56.136;40.360;2023-01-04T06:49:05;57093.69;;;-145.77;100.00
26487;BME280;14425;56.136;40.360;2023-01-04T06:51:30;57093.69;;;-145.77;100.00
26487;BME280;14425;56.136;40.360;2023-01-04T06:53:55;57093.69;;;-145.77;100.00
26487;BME280;14425;56.136;40.360;2023-01-04T06:56:21;57093.69;;;-145.77;100.00
26487;BME280;14425;56.136;40.360;2023-01-04T06:58:46;57093.69;;;-145.77;100.00
26487;BME280;14425;56.136;40.360;2023-01-04T07:01:11;57093.69;;;-145.77;100.00
26487;BME280;14425;56.136;40.360;2023-01-04T07:03:37;57093.69;;;-145.77;100.00
26487;BME280;14425;56.136;40.360;2023-01-04T07:06:03;57093.69;;;-145.77;100.00
26487;BME280;14425;56.136;40.360;2023-01-04T07:08:28;57093.69;;;-145.77;100.00
26487;BME280;14425;56.136;40.360;2023-01-04T07:10:54;57093.69;;;-145.77;100.00
26487;BME280;14425;56.136;40.360;2023-01-04T07:13:19;57093.69;;;-145.77;100.00
26487;BME280;14425;56.136;40.360;2023-01-04T07:15:44;57093.69;;;-145.77;100.00
26487;BME280;14425;56.136;40.360;2023-01-04T07:18:10;57093.69;;;-145.77;100.00
26487;BME280;14425;56.136;40.360;2023-01-04T07:20:35;57093.69;;;-145.77;100.00
26487;BME280;14425;56.136;40.360;2023-01-04T07:23:01;57093.69;;;-145.77;100.00
26487;BME280;14425;56.136;40.360;2023-01-04T07:25:26;57093.69;;;-145.77;100.00
26487;BME280;14425;56.136;40.360;2023-01-04T07:27:52;57093.69;;;-145.77;100.00
26487;BME280;14425;56.136;40.360;2023-01-04T07:30:18;57093.69;;;-145.77;100.00
26487;BME280;14425;56.136;40.360;2023-01-04T07:32:43;57093.69;;;-145.77;100.00
26487;BME280;14425;56.136;40.360;2023-01-04T07:35:08;57093.69;;;-145.77;100.00
26487;BME280;14425;56.136;40.360;2023-01-04T07:37:34;57093.69;;;-145.77;100.00
26487;BME280;14425;56.136;40.360;2023-01-04T07:39:59;57093.69;;;-145.77;100.00
26487;BME280;14425;56.136;40.360;2023-01-04T07:42:24;57093.69;;;-145.77;100.00
26487;BME280;14425;56.136;40.360;2023-01-04T07:44:50;57093.69;;;-145.77;100.00
26487;BME280;14425;56.136;40.360;2023-01-04T07:47:15;57093.69;;;-145.77;100.00
26487;BME280;14425;56.136;40.360;2023-01-04T07:49:41;57093.69;;;-145.77;100.00
26487;BME280;14425;56.136;40.360;2023-01-04T07:52:06;57093.69;;;-145.77;100.00
26487;BME280;14425;56.136;40.360;2023-01-04T07:54:31;57093.69;;;-145.77;100.00
26487;BME280;14425;56.136;40.360;2023-01-04T07:56:57;57093.69;;;-145.77;100.00
26487;BME280;14425;56.136;40.360;2023-01-04T07:59:22;57093.69;;;-145.77;100.00
26487;BME280;14425;56.136;40.360;2023-01-04T08:01:48;57093.69;;;-145.77;100.00
26487;BME280;14425;56.136;40.360;2023-01-04T08:04:15;57093.69;;;-145.77;100.00
26487;BME280;14425;56.136;40.360;2023-01-04T08:06:41;57093.69;;;-145.77;100.00
26487;BME280;14425;56.136;40.360;2023-01-04T08:09:07;57093.69;;;-145.77;100.00
26487;BME280;14425;56.136;40.360;2023-01-04T08:11:34;57093.69;;;-145.77;100.00
26487;BME280;14425;56.136;40.360;2023-01-04T08:13:59;57093.69;;;-145.77;100.00
26487;BME280;14425;56.136;40.360;2023-01-04T08:16:26;57093.69;;;-145.77;100.00
26487;BME280;14425;56.136;40.360;2023-01-04T08:18:55;57093.69;;;-145.77;100.00
26487;BME280;14425;56.136;40.360;2023-01-04T08:21:21;57093.69;;;-145.77;100.00
26487;BME280;14425;56.136;40.360;2023-01-04T08:23:47;57093.69;;;-145.77;100.00
26487;BME280;14425;56.136;40.360;2023-01-04T08:26:13;57093.69;;;-145.77;100.00
26487;BME280;14425;56.136;40.360;2023-01-04T08:28:39;57093.69;;;-145.77;100.00
26487;BME280;14425;56.136;40.360;2023-01-04T08:31:09;57093.69;;;-145.77;100.00
26487;BME280;14425;56.136;40.360;2023-01-04T08:33:35;57093.69;;;-145.77;100.00
26487;BME280;14425;56.136;40.360;2023-01-04T08:36:11;57093.69;;;-145.77;100.00
26487;BME280;14425;56.136;40.360;2023-01-04T08:38:37;57093.69;;;-145.77;100.00
26487;BME280;14425;56.136;40.360;2023-01-04T08:41:02;57093.69;;;-145.77;100.00
26487;BME280;14425;56.136;40.360;2023-01-04T08:43:28;57093.69;;;-145.77;100.00
26487;BME280;14425;56.136;40.360;2023-01-04T08:45:53;57093.69;;;-145.77;100.00
26487;BME280;14425;56.136;40.360;2023-01-04T08:48:18;57093.69;;;-145.77;100.00
26487;BME280;14425;56.136;40.360;2023-01-04T08:50:44;57093.69;;;-145.77;100.00
26487;BME280;14425;56.136;40.360;2023-01-04T08:53:09;57093.69;;;-145.77;100.00
26487;BME280;14425;56.136;40.360;2023-01-04T08:55:35;57093.69;;;-145.77;100.00
26487;BME280;14425;56.136;40.360;2023-01-04T08:58:01;57093.69;;;-145.77;100.00
26487;BME280;14425;56.136;40.360;2023-01-04T09:00:27;57093.69;;;-145.77;100.00
26487;BME280;14425;56.136;40.360;2023-01-04T09:02:52;57093.69;;;-145.77;100.00
26487;BME280;14425;56.136;40.360;2023-01-04T09:05:18;57093.69;;;-145.77;100.00
26487;BME280;14425;56.136;40.360;2023-01-04T09:07:43;57093.69;;;-145.77;100.00
26487;BME280;14425;56.136;40.360;2023-01-04T09:10:08;57093.69;;;-145.77;100.00
26487;BME280;14425;56.136;40.360;2023-01-04T09:12:34;57093.69;;;-145.77;100.00
26487;BME280;14425;56.136;40.360;2023-01-04T09:14:59;57093.69;;;-145.77;100.00
26487;BME280;14425;56.136;40.360;2023-01-04T09:17:24;57093.69;;;-145.77;100.00
26487;BME280;14425;56.136;40.360;2023-01-04T09:19:50;57093.69;;;-145.77;100.00
26487;BME280;14425;56.136;40.360;2023-01-04T09:22:15;57093.69;;;-145.77;100.00
26487;BME280;14425;56.136;40.360;2023-01-04T09:24:40;57093.69;;;-145.77;100.00
26487;BME280;14425;56.136;40.360;2023-01-04T09:27:06;57093.69;;;-145.77;100.00
26487;BME280;14425;56.136;40.360;2023-01-04T09:29:31;57093.69;;;-145.77;100.00
26487;BME280;14425;56.136;40.360;2023-01-04T09:31:56;57093.69;;;-145.77;100.00
26487;BME280;14425;56.136;40.360;2023-01-04T09:34:21;57093.69;;;-145.77;100.00
26487;BME280;14425;56.136;40.360;2023-01-04T09:36:47;57093.69;;;-145.77;100.00
26487;BME280;14425;56.136;40.360;2023-01-04T09:39:13;57093.69;;;-145.77;100.00
26487;BME280;14425;56.136;40.360;2023-01-04T09:41:42;57093.69;;;-145.77;100.00
26487;BME280;14425;56.136;40.360;2023-01-04T09:46:44;57093.69;;;-145.77;100.00
26487;BME280;14425;56.136;40.360;2023-01-04T09:49:14;57093.69;;;-145.77;100.00
26487;BME280;14425;56.136;40.360;2023-01-04T09:51:42;57093.69;;;-145.77;100.00
26487;BME280;14425;56.136;40.360;2023-01-04T09:54:13;57093.69;;;-145.77;100.00
26487;BME280;14425;56.136;40.360;2023-01-04T09:56:44;57093.69;;;-145.77;100.00
26487;BME280;14425;56.136;40.360;2023-01-04T09:59:13;57093.69;;;-145.77;100.00
26487;BME280;14425;56.136;40.360;2023-01-04T10:01:54;57093.69;;;-145.77;100.00
26487;BME280;14425;56.136;40.360;2023-01-04T10:04:40;57093.69;;;-145.77;100.00
26487;BME280;14425;56.136;40.360;2023-01-04T10:07:17;57093.69;;;-145.77;100.00
26487;BME280;14425;56.136;40.360;2023-01-04T10:09:45;57093.69;;;-145.77;100.00
26487;BME280;14425;56.136;40.360;2023-01-04T10:14:51;57093.69;;;-145.77;100.00
26487;BME280;14425;56.136;40.360;2023-01-04T10:17:25;57093.69;;;-145.77;100.00
26487;BME280;14425;56.136;40.360;2023-01-04T10:22:27;57093.69;;;-145.77;100.00
26487;BME280;14425;56.136;40.360;2023-01-04T10:32:42;57093.69;;;-145.77;100.00
26487;BME280;14425;56.136;40.360;2023-01-04T10:35:15;57093.69;;;-145.77;100.00
26487;BME280;14425;56.136;40.360;2023-01-04T10:37:41;57093.69;;;-145.77;100.00
26487;BME280;14425;56.136;40.360;2023-01-04T10:40:14;57093.69;;;-145.77;100.00
26487;BME280;14425;56.136;40.360;2023-01-04T10:42:44;57093.69;;;-145.77;100.00
26487;BME280;14425;56.136;40.360;2023-01-04T10:45:20;57093.69;;;-145.77;100.00
26487;BME280;14425;56.136;40.360;2023-01-04T10:52:45;57093.69;;;-145.77;100.00
26487;BME280;14425;56.136;40.360;2023-01-04T10:57:53;57093.69;;;-145.77;100.00
26487;BME280;14425;56.136;40.360;2023-01-04T11:03:07;57093.69;;;-145.77;100.00
26487;BME280;14425;56.136;40.360;2023-01-04T11:05:43;57093.69;;;-145.77;100.00
26487;BME280;14425;56.136;40.360;2023-01-04T11:08:23;57093.69;;;-145.77;100.00
26487;BME280;14425;56.136;40.360;2023-01-04T11:11:03;57093.69;;;-145.77;100.00
26487;BME280;14425;56.136;40.360;2023-01-04T11:13:29;57093.69;;;-145.77;100.00
26487;BME280;14425;56.136;40.360;2023-01-04T11:15:55;57093.69;;;-145.77;100.00
26487;BME280;14425;56.136;40.360;2023-01-04T11:18:20;57093.69;;;-145.77;100.00
26487;BME280;14425;56.136;40.360;2023-01-04T11:20:46;57093.69;;;-145.77;100.00
26487;BME280;14425;56.136;40.360;2023-01-04T11:23:12;57093.69;;;-145.77;100.00
26487;BME280;14425;56.136;40.360;2023-01-04T11:25:39;57093.69;;;-145.77;100.00
26487;BME280;14425;56.136;40.360;2023-01-04T11:28:17;57093.69;;;-145.77;100.00
26487;BME280;14425;56.136;40.360;2023-01-04T11:33:14;57093.69;;;-145.77;100.00
26487;BME280;14425;56.136;40.360;2023-01-04T11:35:44;57093.69;;;-145.77;100.00
26487;BME280;14425;56.136;40.360;2023-01-04T11:38:12;57093.69;;;-145.77;100.00
26487;BME280;14425;56.136;40.360;2023-01-04T11:40:37;57093.69;;;-145.77;100.00
26487;BME280;14425;56.136;40.360;2023-01-04T11:43:16;57093.69;;;-145.77;100.00
26487;BME280;14425;56.136;40.360;2023-01-04T11:48:38;57093.69;;;-145.77;100.00
26487;BME280;14425;56.136;40.360;2023-01-04T11:51:04;57093.69;;;-145.77;100.00
26487;BME280;14425;56.136;40.360;2023-01-04T11:53:34;57093.69;;;-145.77;100.00
26487;BME280;14425;56.136;40.360;2023-01-04T11:58:31;57093.69;;;-145.77;100.00
26487;BME280;14425;56.136;40.360;2023-01-04T12:00:56;57093.69;;;-145.77;100.00
26487;BME280;14425;56.136;40.360;2023-01-04T12:03:25;57093.69;;;-145.77;100.00
26487;BME280;14425;56.136;40.360;2023-01-04T12:05:50;57093.69;;;-145.77;100.00
26487;BME280;14425;56.136;40.360;2023-01-04T12:08:37;57093.69;;;-145.77;100.00
26487;BME280;14425;56.136;40.360;2023-01-04T12:11:03;57093.69;;;-145.77;100.00
26487;BME280;14425;56.136;40.360;2023-01-04T12:13:28;57093.69;;;-145.77;100.00
26487;BME280;14425;56.136;40.360;2023-01-04T12:16:07;57093.69;;;-145.77;100.00
26487;BME280;14425;56.136;40.360;2023-01-04T12:18:41;57093.69;;;-145.77;100.00
26487;BME280;14425;56.136;40.360;2023-01-04T12:21:11;57093.69;;;-145.77;100.00
26487;BME280;14425;56.136;40.360;2023-01-04T12:23:38;57093.69;;;-145.77;100.00
26487;BME280;14425;56.136;40.360;2023-01-04T12:26:03;57093.69;;;-145.77;100.00
26487;BME280;14425;56.136;40.360;2023-01-04T12:28:34;57093.69;;;-145.77;100.00
26487;BME280;14425;56.136;40.360;2023-01-04T12:33:46;57093.69;;;-145.77;100.00
26487;BME280;14425;56.136;40.360;2023-01-04T12:36:12;57093.69;;;-145.77;100.00
26487;BME280;14425;56.136;40.360;2023-01-04T12:41:16;57093.69;;;-145.77;100.00
26487;BME280;14425;56.136;40.360;2023-01-04T12:43:42;57093.69;;;-145.77;100.00
26487;BME280;14425;56.136;40.360;2023-01-04T12:49:42;57093.69;;;-145.77;100.00
26487;BME280;14425;56.136;40.360;2023-01-04T12:59:57;57093.69;;;-145.77;100.00
26487;BME280;14425;56.136;40.360;2023-01-04T13:02:23;57093.69;;;-145.77;100.00
26487;BME280;14425;56.136;40.360;2023-01-04T13:04:53;57093.69;;;-145.77;100.00
26487;BME280;14425;56.136;40.360;2023-01-04T13:07:38;57093.69;;;-145.77;100.00
26487;BME280;14425;56.136;40.360;2023-01-04T13:10:18;57093.69;;;-145.77;100.00
26487;BME280;14425;56.136;40.360;2023-01-04T13:15:15;57093.69;;;-145.77;100.00
26487;BME280;14425;56.136;40.360;2023-01-04T13:17:43;57093.69;;;-145.77;100.00
26487;BME280;14425;56.136;40.360;2023-01-04T13:20:13;57093.69;;;-145.77;100.00
26487;BME280;14425;56.136;40.360;2023-01-04T13:22:39;57093.69;;;-145.77;100.00
26487;BME280;14425;56.136;40.360;2023-01-04T13:25:10;57093.69;;;-145.77;100.00
26487;BME280;14425;56.136;40.360;2023-01-04T13:27:38;57093.69;;;-145.77;100.00
26487;BME280;14425;56.136;40.360;2023-01-04T13:33:16;57093.69;;;-145.77;100.00
26487;BME280;14425;56.136;40.360;2023-01-04T13:35:43;57093.69;;;-145.77;100.00
26487;BME280;14425;56.136;40.360;2023-01-04T13:38:12;57093.69;;;-145.77;100.00
26487;BME280;14425;56.136;40.360;2023-01-04T13:40:47;57093.69;;;-145.77;100.00
26487;BME280;14425;56.136;40.360;2023-01-04T13:48:22;57093.69;;;-145.77;100.00
26487;BME280;14425;56.136;40.360;2023-01-04T13:53:41;57093.69;;;-145.77;100.00
26487;BME280;14425;56.136;40.360;2023-01-04T13:56:16;57093.69;;;-145.77;100.00
26487;BME280;14425;56.136;40.360;2023-01-04T13:58:42;57093.69;;;-145.77;100.00
26487;BME280;14425;56.136;40.360;2023-01-04T14:01:24;57093.69;;;-145.77;100.00
26487;BME280;14425;56.136;40.360;2023-01-04T14:03:51;57093.69;;;-145.77;100.00
26487;BME280;14425;56.136;40.360;2023-01-04T14:06:22;57093.69;;;-145.77;100.00
26487;BME280;14425;56.136;40.360;2023-01-04T14:08:49;57093.69;;;-145.77;100.00